.
WxDataArchive / Data Records for 2011-03-16
2011-03-15 March 2011 2011-03-17

Data Records for Wednesday, 16 March 2011

Time	Temp	Chill	HIndex	Humid	Dewpt	 Wind 	HiWind	WindDir	Rain 	Barom 
-----	----	-----	------	-----	-----	------	------	-------	-----	----- 
00:00	37.5	37.5	37.5	96	36.5	0	0	---	0.00	30.052 
00:05	37.5	37.5	37.5	96	36.5	0	1	112	0.00	30.052 
00:10	37.5	37.5	37.5	96	36.5	0	0	---	0.00	30.052 
00:15	37.6	37.6	37.6	96	36.6	0	1	112	0.00	30.060 
00:20	37.8	37.8	37.8	96	36.8	0	1	112	0.00	30.060 
00:25	37.8	37.8	37.8	96	36.8	0	2	112	0.00	30.060 
00:30	37.9	37.9	37.9	96	36.9	0	2	112	0.00	30.062 
00:35	38.0	38.0	38.0	96	37.0	1	3	112	0.00	30.062 
00:40	38.2	38.2	38.2	96	37.2	1	3	270	0.00	30.062 
00:45	38.3	38.3	38.3	96	37.3	0	2	270	0.00	30.061 
00:50	38.5	38.5	38.5	96	37.5	1	5	270	0.00	30.061 
00:55	38.5	38.5	38.5	96	37.5	1	2	225	0.00	30.061 
01:00	38.5	38.5	38.5	96	37.5	1	3	225	0.00	30.059 
01:05	38.6	38.6	38.6	96	37.6	1	2	225	0.00	30.059 
01:10	38.6	38.6	38.6	96	37.6	1	4	225	0.00	30.059 
01:15	38.6	38.6	38.6	96	37.6	1	3	248	0.00	30.051 
01:20	38.6	38.6	38.6	96	37.6	0	2	248	0.00	30.051 
01:25	38.6	38.6	38.6	96	37.6	1	3	248	0.00	30.051 
01:30	38.8	38.8	38.8	96	37.8	1	3	248	0.00	30.057 
01:35	38.8	38.8	38.8	96	37.8	0	2	248	0.00	30.057 
01:40	38.8	38.8	38.8	96	37.8	1	4	248	0.00	30.057 
01:45	38.8	38.8	38.8	96	37.8	1	3	270	0.00	30.052 
01:50	38.8	38.8	38.8	96	37.8	2	6	248	0.00	30.052 
01:55	38.8	38.8	38.8	96	37.8	2	4	248	0.00	30.052 
02:00	38.8	38.8	38.8	96	37.8	1	3	248	0.00	30.058 
02:05	38.8	38.8	38.8	96	37.8	2	4	248	0.00	30.058 
02:10	38.8	38.8	38.8	96	37.8	1	3	248	0.00	30.058 
02:15	38.8	38.8	38.8	96	37.8	1	4	248	0.00	30.060 
02:20	38.8	38.8	38.8	96	37.8	1	3	248	0.00	30.060 
02:25	38.9	38.9	38.9	96	37.9	1	3	248	0.00	30.060 
02:30	38.9	38.9	38.9	96	37.9	1	2	248	0.00	30.061 
02:35	38.9	38.9	38.9	96	37.9	1	2	248	0.00	30.061 
02:40	38.9	38.9	38.9	96	37.9	1	2	248	0.00	30.061 
02:45	38.9	38.9	38.9	96	37.9	1	4	248	0.00	30.062 
02:50	38.9	38.9	38.9	96	37.9	1	4	248	0.00	30.062 
02:55	38.9	38.9	38.9	96	37.9	1	2	248	0.00	30.062 
03:00	38.9	38.9	38.9	96	37.9	1	3	270	0.00	30.063 
03:05	38.9	38.9	38.9	96	37.9	1	4	270	0.00	30.063 
03:10	38.9	38.9	38.9	96	37.9	2	6	270	0.00	30.063 
03:15	38.9	38.9	38.9	96	37.9	2	5	248	0.00	30.064 
03:20	38.9	38.9	38.9	96	37.9	1	3	248	0.00	30.064 
03:25	38.9	38.9	38.9	96	37.9	2	5	248	0.00	30.064 
03:30	38.9	38.9	38.9	96	37.9	2	3	248	0.00	30.067 
03:35	38.9	38.9	38.9	96	37.9	2	6	248	0.00	30.067 
03:40	38.9	38.9	38.9	96	37.9	1	3	248	0.00	30.067 
03:45	38.9	38.9	38.9	96	37.9	1	3	248	0.00	30.066 
03:50	38.9	38.9	38.9	96	37.9	1	2	248	0.00	30.066 
03:55	38.9	38.9	38.9	96	37.9	2	4	248	0.00	30.066 
04:00	38.8	38.8	38.8	96	37.8	1	4	248	0.00	30.060 
04:05	38.8	38.8	38.8	96	37.8	1	2	248	0.00	30.060 
04:10	38.8	38.8	38.8	96	37.8	2	4	270	0.00	30.060 
04:15	38.6	38.6	38.6	96	37.6	2	5	248	0.00	30.060 
04:20	38.5	38.5	38.5	96	37.5	2	5	248	0.00	30.060 
04:25	38.5	38.5	38.5	96	37.5	2	4	248	0.00	30.060 
04:30	38.5	38.5	38.5	96	37.5	2	4	248	0.00	30.059 
04:35	38.3	38.3	38.3	96	37.3	1	4	248	0.00	30.059 
04:40	38.2	38.2	38.2	96	37.2	3	6	248	0.00	30.059 
04:45	38.0	38.0	38.0	96	37.0	2	5	248	0.00	30.063 
04:50	37.9	37.9	37.9	96	36.9	2	6	248	0.00	30.063 
04:55	37.8	37.8	37.8	96	36.8	2	6	248	0.00	30.063 
05:00	37.8	37.8	37.8	96	36.8	2	5	270	0.00	30.070 
05:05	37.6	37.6	37.6	96	36.6	2	6	248	0.00	30.070 
05:10	37.6	37.6	37.6	96	36.6	2	4	270	0.00	30.070 
05:15	37.5	37.5	37.5	96	36.5	2	5	248	0.00	30.074 
05:20	37.3	37.3	37.3	96	36.3	3	5	270	0.00	30.074 
05:25	37.3	37.3	37.3	96	36.3	2	5	270	0.00	30.074 
05:30	37.3	37.3	37.3	96	36.3	2	5	270	0.00	30.079 
05:35	37.3	37.3	37.3	96	36.3	2	5	270	0.00	30.079 
05:40	37.3	37.3	37.3	96	36.3	2	5	270	0.00	30.079 
05:45	37.3	37.3	37.3	96	36.3	2	4	270	0.00	30.086 
05:50	37.3	37.3	37.3	96	36.3	2	5	270	0.00	30.086 
05:55	37.3	37.3	37.3	96	36.3	2	5	248	0.00	30.086 
06:00	37.3	37.3	37.3	96	36.3	2	3	248	0.00	30.089 
06:05	37.3	37.3	37.3	96	36.3	2	3	248	0.00	30.089 
06:10	37.3	37.3	37.3	96	36.3	1	3	292	0.00	30.089 
06:15	37.3	37.3	37.3	96	36.3	1	3	292	0.00	30.092 
06:20	37.3	37.3	37.3	96	36.3	1	3	225	0.00	30.092 
06:25	37.5	37.5	37.5	96	36.5	1	3	225	0.00	30.092 
06:30	37.5	37.5	37.5	96	36.5	1	2	225	0.00	30.092 
06:35	37.5	37.5	37.5	96	36.5	1	3	225	0.00	30.092 
06:40	37.5	37.5	37.5	96	36.5	1	3	225	0.00	30.092 
06:45	37.6	37.6	37.6	96	36.6	1	4	225	0.00	30.101 
06:50	37.6	37.6	37.6	96	36.6	1	3	248	0.00	30.101 
06:55	37.6	37.6	37.6	95	36.3	0	2	248	0.00	30.101 
07:00	37.6	37.6	37.6	96	36.6	1	4	248	0.00	30.108 
07:05	37.6	37.6	37.6	95	36.3	1	3	248	0.00	30.108 
07:10	37.6	37.6	37.6	95	36.3	1	3	248	0.00	30.108 
07:15	37.8	37.8	37.8	95	36.5	1	3	248	0.00	30.113 
07:20	37.8	37.8	37.8	95	36.5	1	4	248	0.00	30.113 
07:25	37.8	37.8	37.8	95	36.5	1	3	248	0.00	30.113 
07:30	37.8	37.8	37.8	95	36.5	1	4	248	0.00	30.121 
07:35	37.8	37.8	37.8	95	36.5	1	4	248	0.00	30.121 
07:40	37.8	37.8	37.8	95	36.5	1	4	248	0.00	30.121 
07:45	37.9	37.9	37.9	95	36.6	2	4	248	0.00	30.123 
07:50	37.9	37.9	37.9	95	36.6	1	5	248	0.00	30.123 
07:55	37.9	37.9	37.9	95	36.6	1	4	248	0.00	30.123 
08:00	37.9	37.9	37.9	95	36.6	1	4	270	0.00	30.124 
08:05	37.9	37.9	37.9	95	36.6	2	5	248	0.00	30.124 
08:10	37.9	37.9	37.9	95	36.6	1	3	248	0.00	30.124 
08:15	37.8	37.8	37.8	95	36.5	2	4	248	0.00	30.125 
08:20	37.8	37.8	37.8	95	36.5	2	5	248	0.00	30.125 
08:25	37.8	37.8	37.8	94	36.2	3	7	248	0.00	30.125 
08:30	37.8	37.8	37.8	94	36.2	2	5	248	0.00	30.135 
08:35	37.8	37.8	37.8	94	36.2	1	4	248	0.00	30.135 
08:40	37.6	37.6	37.6	94	36.0	2	5	248	0.00	30.135 
08:45	37.8	37.8	37.8	94	36.2	2	5	248	0.00	30.138 
08:50	37.8	37.8	37.8	94	36.2	1	2	248	0.00	30.138 
08:55	37.9	37.9	37.9	93	36.1	2	4	248	0.00	30.138 
09:00	37.9	37.9	37.9	93	36.1	2	5	225	0.00	30.139 
09:05	38.0	38.0	38.0	93	36.2	1	2	225	0.00	30.139 
09:10	38.0	38.0	38.0	93	36.2	1	4	225	0.00	30.139 
09:15	38.0	38.0	38.0	93	36.2	2	5	248	0.00	30.142 
09:20	37.9	37.9	37.9	92	35.8	2	4	270	0.00	30.142 
09:25	38.0	38.0	38.0	93	36.2	1	4	248	0.00	30.142 
09:30	38.3	38.3	38.3	92	36.2	2	5	248	0.00	30.151 
09:35	38.5	38.5	38.5	92	36.4	1	3	270	0.00	30.151 
09:40	38.6	38.6	38.6	92	36.5	2	4	248	0.00	30.151 
09:45	38.8	38.8	38.8	92	36.7	2	4	225	0.00	30.158 
09:50	39.2	39.2	39.2	92	37.1	2	4	248	0.00	30.158 
09:55	39.5	39.5	39.5	91	37.1	2	7	248	0.00	30.158 
10:00	39.6	39.6	39.6	91	37.2	1	4	270	0.00	30.160 
10:05	39.8	39.8	39.8	90	37.1	2	5	248	0.00	30.160 
10:10	39.6	39.6	39.6	90	36.9	3	9	248	0.00	30.160 
10:15	39.6	39.6	39.6	89	36.6	2	9	248	0.00	30.166 
10:20	39.6	39.6	39.6	88	36.3	2	6	248	0.00	30.166 
10:25	39.8	39.8	39.8	88	36.5	3	6	248	0.00	30.166 
10:30	40.2	40.2	40.2	88	36.9	2	4	248	0.00	30.169 
10:35	40.6	40.6	40.6	87	37.0	2	4	270	0.00	30.169 
10:40	40.8	40.8	40.8	87	37.2	1	3	270	0.00	30.169 
10:45	40.9	40.9	40.9	86	37.0	2	5	248	0.00	30.171 
10:50	41.5	41.5	41.5	87	37.9	1	5	248	0.00	30.171 
10:55	42.1	42.1	42.1	86	38.2	1	4	270	0.00	30.171 
11:00	42.5	42.5	42.5	85	38.3	2	5	248	0.00	30.166 
11:05	42.2	42.2	42.2	83	37.4	2	5	270	0.00	30.166 
11:10	42.6	42.6	42.6	84	38.1	2	3	270	0.00	30.166 
11:15	43.3	43.3	43.3	83	38.5	2	6	248	0.00	30.167 
11:20	43.5	43.5	43.5	81	38.1	2	5	270	0.00	30.167 
11:25	43.6	43.6	43.6	80	37.8	2	5	248	0.00	30.167 
11:30	43.9	43.9	43.9	80	38.1	2	4	248	0.00	30.165 
11:35	44.5	44.5	44.5	79	38.4	2	4	248	0.00	30.165 
11:40	44.9	44.9	44.9	78	38.5	2	4	248	0.00	30.165 
11:45	44.9	44.9	44.9	77	38.1	2	5	248	0.00	30.161 
11:50	45.1	45.1	45.1	76	38.0	2	5	248	0.00	30.161 
11:55	45.4	45.4	45.4	77	38.6	1	4	292	0.00	30.161 
12:00	45.8	45.8	45.8	75	38.3	2	4	248	0.00	30.149 
12:05	45.8	45.8	45.8	74	38.0	2	4	248	0.00	30.149 
12:10	46.2	46.2	46.2	73	38.0	1	5	248	0.00	30.149 
12:15	47.0	47.0	47.0	73	38.8	1	3	248	0.00	30.154 
12:20	47.4	47.4	47.4	71	38.5	1	6	248	0.00	30.154 
12:25	47.9	47.9	47.9	70	38.6	2	5	248	0.00	30.154 
12:30	48.0	48.0	48.0	71	39.1	2	7	248	0.00	30.162 
12:35	48.2	48.2	48.2	70	38.9	2	4	248	0.00	30.162 
12:40	48.8	48.8	48.8	70	39.5	1	4	248	0.00	30.162 
12:45	49.1	49.1	49.1	67	38.6	2	5	248	0.00	30.157 
12:50	49.6	49.6	49.6	66	38.7	1	4	248	0.00	30.157 
12:55	49.6	49.6	49.6	66	38.7	1	4	225	0.00	30.157 
13:00	49.9	49.9	49.9	65	38.6	2	5	248	0.00	30.156 
13:05	50.2	50.2	50.2	64	38.5	2	5	248	0.00	30.156 
13:10	50.7	50.7	50.7	63	38.6	1	4	270	0.00	30.156 
13:15	51.0	51.0	51.0	60	37.6	2	5	270	0.00	30.155 
13:20	51.0	51.0	51.0	60	37.6	2	6	248	0.00	30.155 
13:25	51.3	51.3	51.3	55	35.7	2	5	248	0.00	30.155 
13:30	51.7	51.7	51.7	56	36.5	2	5	248	0.00	30.155 
13:35	52.2	52.2	52.2	58	37.9	2	6	270	0.00	30.155 
13:40	52.6	52.6	52.6	57	37.8	2	5	270	0.00	30.155 
13:45	52.8	52.8	52.8	56	37.5	2	4	270	0.00	30.148 
13:50	52.5	52.5	52.5	53	35.9	3	7	248	0.00	30.148 
13:55	52.5	52.5	52.5	53	35.9	2	4	270	0.00	30.148 
14:00	52.6	52.6	52.6	53	36.0	3	9	248	0.00	30.140 
14:05	53.2	53.2	53.2	55	37.5	3	5	248	0.00	30.140 
14:10	53.8	53.8	53.8	54	37.5	2	4	270	0.00	30.140 
14:15	53.6	53.6	53.6	54	37.4	2	5	270	0.00	30.138 
14:20	53.5	53.5	53.5	56	38.2	2	5	338	0.00	30.138 
14:25	53.6	53.6	53.6	54	37.4	3	7	248	0.00	30.138 
14:30	53.8	53.8	53.8	55	38.0	3	6	248	0.00	30.130 
14:35	54.1	54.1	54.1	53	37.4	3	7	270	0.00	30.130 
14:40	53.8	53.8	53.8	55	38.0	3	5	315	0.00	30.130 
14:45	54.5	54.5	54.5	55	38.7	2	6	248	0.00	30.126 
14:50	54.7	54.7	54.7	54	38.4	3	7	270	0.00	30.126 
14:55	55.0	55.0	55.0	52	37.7	2	6	248	0.00	30.126 
15:00	55.4	55.4	55.4	52	38.1	3	6	270	0.00	30.122 
15:05	55.1	55.1	55.1	53	38.3	3	6	270	0.00	30.122 
15:10	55.0	55.0	55.0	52	37.7	3	9	270	0.00	30.122 
15:15	55.4	55.4	55.4	53	38.6	2	5	270	0.00	30.120 
15:20	55.4	55.4	55.4	52	38.1	3	7	270	0.00	30.120 
15:25	55.4	55.4	55.4	53	38.6	2	5	270	0.00	30.120 
15:30	55.6	55.6	55.6	52	38.3	2	7	270	0.00	30.111 
15:35	55.9	55.9	55.9	52	38.5	2	7	270	0.00	30.111 
15:40	56.0	56.0	56.0	50	37.6	3	10	248	0.00	30.111 
15:45	56.5	56.5	56.5	51	38.6	2	5	292	0.00	30.105 
15:50	56.7	56.7	56.7	51	38.8	2	7	270	0.00	30.105 
15:55	57.3	57.3	57.3	49	38.3	2	5	270	0.00	30.105 
16:00	57.3	57.3	57.3	47	37.2	3	9	270	0.00	30.094 
16:05	57.5	57.5	57.5	47	37.4	2	5	270	0.00	30.094 
16:10	57.3	57.3	57.3	48	37.8	1	4	270	0.00	30.094 
16:15	57.3	57.3	57.3	47	37.2	2	6	292	0.00	30.095 
16:20	57.6	57.6	57.6	47	37.5	1	4	248	0.00	30.095 
16:25	57.5	57.5	57.5	47	37.4	2	7	270	0.00	30.095 
16:30	57.3	57.3	57.3	46	36.7	2	6	248	0.00	30.097 
16:35	57.5	57.5	57.5	46	36.9	2	5	270	0.00	30.097 
16:40	57.3	57.3	57.3	46	36.7	3	10	270	0.00	30.097 
16:45	57.3	57.3	57.3	47	37.2	2	6	248	0.00	30.095 
16:50	57.5	57.5	57.5	44	35.8	3	7	248	0.00	30.095 
16:55	57.3	57.3	57.3	44	35.6	2	5	248	0.00	30.095 
17:00	57.5	57.5	57.5	45	36.3	1	4	248	0.00	30.093 
17:05	57.5	57.5	57.5	44	35.8	2	5	248	0.00	30.093 
17:10	57.6	57.6	57.6	44	35.8	2	6	270	0.00	30.093 
17:15	57.5	57.5	57.5	43	35.2	3	7	270	0.00	30.091 
17:20	57.5	57.5	57.5	44	35.8	2	6	225	0.00	30.091 
17:25	57.5	57.5	57.5	44	35.8	3	7	248	0.00	30.091 
17:30	57.6	57.6	57.6	44	35.8	2	6	248	0.00	30.093 
17:35	57.8	57.8	57.8	43	35.5	2	5	248	0.00	30.093 
17:40	57.6	57.6	57.6	43	35.3	3	7	248	0.00	30.093 
17:45	57.6	57.6	57.6	43	35.3	3	7	248	0.00	30.101 
17:50	57.5	57.5	57.5	43	35.2	3	6	248	0.00	30.101 
17:55	57.3	57.3	57.3	44	35.6	3	10	270	0.00	30.101 
18:00	57.3	57.3	57.3	44	35.6	3	8	248	0.00	30.101 
18:05	57.2	57.2	57.2	45	36.1	3	6	292	0.00	30.101 
18:10	57.2	57.2	57.2	45	36.1	2	5	270	0.00	30.101 
18:15	57.2	57.2	57.2	45	36.1	3	8	270	0.00	30.100 
18:20	57.0	57.0	57.0	46	36.4	3	7	270	0.00	30.100 
18:25	56.9	56.9	56.9	46	36.3	2	5	270	0.00	30.100 
18:30	56.9	56.9	56.9	46	36.3	2	5	292	0.00	30.104 
18:35	56.9	56.9	56.9	47	36.9	1	4	248	0.00	30.104 
18:40	56.7	56.7	56.7	47	36.7	2	6	248	0.00	30.104 
18:45	56.6	56.6	56.6	47	36.6	1	3	270	0.00	30.107 
18:50	56.5	56.5	56.5	47	36.5	2	6	248	0.00	30.107 
18:55	56.3	56.3	56.3	48	36.9	3	10	248	0.00	30.107 
19:00	56.2	56.2	56.2	48	36.8	3	7	248	0.00	30.112 
19:05	56.0	56.0	56.0	49	37.1	2	4	248	0.00	30.112 
19:10	55.7	55.7	55.7	50	37.3	1	4	248	0.00	30.112 
19:15	55.6	55.6	55.6	50	37.3	1	4	248	0.00	30.112 
19:20	55.4	55.4	55.4	51	37.6	2	6	248	0.00	30.112 
19:25	55.3	55.3	55.3	52	38.0	1	3	248	0.00	30.112 
19:30	55.0	55.0	55.0	53	38.2	1	4	248	0.00	30.117 
19:35	54.7	54.7	54.7	53	37.9	1	3	248	0.00	30.117 
19:40	54.5	54.5	54.5	54	38.2	0	2	248	0.00	30.117 
19:45	54.2	54.2	54.2	54	37.9	0	1	248	0.00	30.120 
19:50	54.1	54.1	54.1	55	38.3	1	3	248	0.00	30.120 
19:55	54.1	54.1	54.1	55	38.3	0	2	248	0.00	30.120 
20:00	53.9	53.9	53.9	56	38.6	0	2	248	0.00	30.127 
20:05	53.9	53.9	53.9	56	38.6	0	3	248	0.00	30.127 
20:10	53.9	53.9	53.9	57	39.0	0	2	248	0.00	30.127 
20:15	53.9	53.9	53.9	57	39.0	0	3	248	0.00	30.135 
20:20	54.1	54.1	54.1	57	39.2	0	4	248	0.00	30.135 
20:25	54.1	54.1	54.1	58	39.7	0	2	248	0.00	30.135 
20:30	54.1	54.1	54.1	58	39.7	0	3	248	0.00	30.133 
20:35	53.9	53.9	53.9	58	39.5	0	2	248	0.00	30.133 
20:40	53.8	53.8	53.8	58	39.4	0	1	248	0.00	30.133 
20:45	53.5	53.5	53.5	59	39.5	0	0	---	0.00	30.131 
20:50	53.2	53.2	53.2	59	39.2	0	1	248	0.00	30.131 
20:55	52.8	52.8	52.8	60	39.3	0	0	---	0.00	30.131 
21:00	52.5	52.5	52.5	61	39.4	0	0	---	0.00	30.137 
21:05	52.2	52.2	52.2	62	39.6	0	0	---	0.00	30.137 
21:10	51.9	51.9	51.9	62	39.3	0	0	---	0.00	30.137 
21:15	51.4	51.4	51.4	63	39.2	0	1	248	0.00	30.126 
21:20	51.1	51.1	51.1	64	39.4	0	0	---	0.00	30.126 
21:25	50.8	50.8	50.8	64	39.1	0	0	---	0.00	30.126 
21:30	50.4	50.4	50.4	65	39.1	0	0	---	0.00	30.126 
21:35	50.1	50.1	50.1	66	39.2	0	0	---	0.00	30.126 
21:40	49.9	49.9	49.9	67	39.4	0	0	---	0.00	30.126 
21:45	49.8	49.8	49.8	67	39.3	0	1	248	0.00	30.123 
21:50	49.5	49.5	49.5	68	39.4	0	0	---	0.00	30.123 
21:55	49.2	49.2	49.2	68	39.1	0	0	---	0.00	30.123 
22:00	48.9	48.9	48.9	69	39.2	0	0	---	0.00	30.127 
22:05	48.6	48.6	48.6	70	39.3	0	0	---	0.00	30.127 
22:10	48.3	48.3	48.3	71	39.3	0	1	248	0.00	30.127 
22:15	48.2	48.2	48.2	72	39.6	0	1	248	0.00	30.127 
22:20	48.0	48.0	48.0	73	39.8	0	1	248	0.00	30.127 
22:25	47.9	47.9	47.9	73	39.7	0	0	---	0.00	30.127 
22:30	47.7	47.7	47.7	74	39.8	0	0	---	0.00	30.125 
22:35	47.6	47.6	47.6	75	40.1	0	1	248	0.00	30.125 
22:40	47.6	47.6	47.6	75	40.1	0	1	248	0.00	30.125 
22:45	47.6	47.6	47.6	76	40.4	0	2	248	0.00	30.131 
22:50	47.6	47.6	47.6	76	40.4	0	2	248	0.00	30.131 
22:55	47.6	47.6	47.6	76	40.4	0	0	---	0.00	30.131 
23:00	47.4	47.4	47.4	76	40.2	0	1	248	0.00	30.125 
23:05	47.4	47.4	47.4	76	40.2	0	3	248	0.00	30.125 
23:10	47.4	47.4	47.4	76	40.2	0	2	248	0.00	30.125 
23:15	47.6	47.6	47.6	75	40.1	0	2	248	0.00	30.121 
23:20	47.6	47.6	47.6	75	40.1	0	1	248	0.00	30.121 
23:25	47.6	47.6	47.6	74	39.7	0	3	248	0.00	30.121 
23:30	47.6	47.6	47.6	73	39.4	0	2	248	0.00	30.119 
23:35	47.6	47.6	47.6	73	39.4	0	2	248	0.00	30.119 
23:40	47.6	47.6	47.6	72	39.0	0	2	248	0.00	30.119 
23:45	47.6	47.6	47.6	72	39.0	1	3	248	0.00	30.122 
23:50	47.7	47.7	47.7	71	38.8	0	2	248	0.00	30.122 
23:55	47.9	47.9	47.9	70	38.6	0	2	248	0.00	30.122 

CoCoRaHS
IN-AL-39
A2 Web Hosting
Creative Commons License
GoDaddy
search engine by freefind advanced

loaded 2018-11-19 19:01:08 • last modified 2010-11-18 10:43:29
Privacy PolicyDisclaimer
• wx.awcolley.com is powered by PmWiki v.2002016 •
• all content (unless otherwise noted) © 2018 A W Colley